Faro Airport Faro PT
ICAO: LPFR
IATA: FAO
Category: Large
Scheduled Services: Yes

Elevation: 24 ft
TransAlt. 4000 ft.

Airport Communications:
APP:119.4
ATIS:124.2
GND:118.575
TWR:118.2

LPFR Zoom In..

Runways:

(A) RW 10 length 8169 ft width 148 ft
---- / hdg 104

(B) RW 28 length 8169 ft width 148 ft
ILS 109.50 / hdg 284

Location; LPFR
Day. 14 / Time. 14.00 Zulu
* QNH: 1017
* Temperature: 23° c. 73.4°f.
* Wind from: 220° Speed 07 kn.
Dewpoint: 18° c.
Visibility: 10 km or more,
No clouds below 1,500 m.
No cumulonimbus, and no significant weather
fenomena in the aerodrome or its vicinity.

LPFR 141400Z 22007KT 170V250 CAVOK 23/18 Q1017


Wind From 220°
Speed 07 kn.

 
 
jpsmedia.com for Web Design worldairports.se 2018   terms of use